sensor_id;sensor_type;location;lat;lon;timestamp;temperature;humidity
64855;DHT22;51321;50.428;8.378;2022-08-01T00:00:40;20.70;97.90
64855;DHT22;51321;50.428;8.378;2022-08-01T00:03:02;20.80;97.80
64855;DHT22;51321;50.428;8.378;2022-08-01T00:05:24;20.70;97.80
64855;DHT22;51321;50.428;8.378;2022-08-01T00:07:46;20.70;98.00
64855;DHT22;51321;50.428;8.378;2022-08-01T00:10:09;20.70;98.20
64855;DHT22;51321;50.428;8.378;2022-08-01T00:12:32;20.70;98.20
64855;DHT22;51321;50.428;8.378;2022-08-01T00:14:54;20.80;98.10
64855;DHT22;51321;50.428;8.378;2022-08-01T00:17:16;20.80;97.90
64855;DHT22;51321;50.428;8.378;2022-08-01T00:19:38;20.90;97.70
64855;DHT22;51321;50.428;8.378;2022-08-01T00:22:00;20.90;97.70
64855;DHT22;51321;50.428;8.378;2022-08-01T00:24:21;20.90;97.80
64855;DHT22;51321;50.428;8.378;2022-08-01T00:26:43;20.80;97.80
64855;DHT22;51321;50.428;8.378;2022-08-01T00:29:06;20.80;97.90
64855;DHT22;51321;50.428;8.378;2022-08-01T00:31:28;20.70;98.10
64855;DHT22;51321;50.428;8.378;2022-08-01T00:33:50;20.70;98.20
64855;DHT22;51321;50.428;8.378;2022-08-01T00:36:12;20.70;98.10
64855;DHT22;51321;50.428;8.378;2022-08-01T00:38:33;20.60;98.20
64855;DHT22;51321;50.428;8.378;2022-08-01T00:40:55;20.60;98.40
64855;DHT22;51321;50.428;8.378;2022-08-01T00:43:17;20.50;98.30
64855;DHT22;51321;50.428;8.378;2022-08-01T00:45:40;20.60;98.10
64855;DHT22;51321;50.428;8.378;2022-08-01T00:48:03;20.60;98.10
64855;DHT22;51321;50.428;8.378;2022-08-01T00:50:24;20.50;98.30
64855;DHT22;51321;50.428;8.378;2022-08-01T00:52:46;20.40;98.40
64855;DHT22;51321;50.428;8.378;2022-08-01T00:55:09;20.30;98.60
64855;DHT22;51321;50.428;8.378;2022-08-01T00:57:31;20.20;98.70
64855;DHT22;51321;50.428;8.378;2022-08-01T00:59:53;20.30;98.50
64855;DHT22;51321;50.428;8.378;2022-08-01T01:02:17;20.40;98.40
64855;DHT22;51321;50.428;8.378;2022-08-01T01:04:38;20.30;98.60
64855;DHT22;51321;50.428;8.378;2022-08-01T01:07:06;20.30;98.60
64855;DHT22;51321;50.428;8.378;2022-08-01T01:09:35;20.40;98.40
64855;DHT22;51321;50.428;8.378;2022-08-01T01:12:11;20.30;98.40
64855;DHT22;51321;50.428;8.378;2022-08-01T01:14:38;20.20;98.70
64855;DHT22;51321;50.428;8.378;2022-08-01T01:17:06;20.10;99.00
64855;DHT22;51321;50.428;8.378;2022-08-01T01:19:31;20.00;99.00
64855;DHT22;51321;50.428;8.378;2022-08-01T01:22:08;20.10;99.00
64855;DHT22;51321;50.428;8.378;2022-08-01T01:24:41;20.10;99.10
64855;DHT22;51321;50.428;8.378;2022-08-01T01:27:12;20.00;99.40
64855;DHT22;51321;50.428;8.378;2022-08-01T01:29:42;20.00;99.30
64855;DHT22;51321;50.428;8.378;2022-08-01T01:32:07;20.00;99.40
64855;DHT22;51321;50.428;8.378;2022-08-01T01:34:33;19.90;99.60
64855;DHT22;51321;50.428;8.378;2022-08-01T01:36:58;19.80;99.70
64855;DHT22;51321;50.428;8.378;2022-08-01T01:39:22;19.90;99.80
64855;DHT22;51321;50.428;8.378;2022-08-01T01:41:48;19.90;99.90
64855;DHT22;51321;50.428;8.378;2022-08-01T01:44:12;19.90;99.90
64855;DHT22;51321;50.428;8.378;2022-08-01T01:46:36;20.00;99.80
64855;DHT22;51321;50.428;8.378;2022-08-01T01:48:59;20.10;99.70
64855;DHT22;51321;50.428;8.378;2022-08-01T01:51:23;20.00;99.70
64855;DHT22;51321;50.428;8.378;2022-08-01T01:53:46;19.90;99.80
64855;DHT22;51321;50.428;8.378;2022-08-01T01:56:09;19.80;99.90
64855;DHT22;51321;50.428;8.378;2022-08-01T01:58:33;19.70;99.90
64855;DHT22;51321;50.428;8.378;2022-08-01T02:00:56;19.60;99.90
64855;DHT22;51321;50.428;8.378;2022-08-01T02:03:21;19.60;99.90
64855;DHT22;51321;50.428;8.378;2022-08-01T02:05:44;19.50;99.90
64855;DHT22;51321;50.428;8.378;2022-08-01T02:08:07;19.50;99.90
64855;DHT22;51321;50.428;8.378;2022-08-01T02:10:32;19.50;99.90
64855;DHT22;51321;50.428;8.378;2022-08-01T02:12:58;19.40;99.90
64855;DHT22;51321;50.428;8.378;2022-08-01T02:15:20;19.30;99.90
64855;DHT22;51321;50.428;8.378;2022-08-01T02:17:44;19.40;99.90
64855;DHT22;51321;50.428;8.378;2022-08-01T02:20:10;19.30;99.90
64855;DHT22;51321;50.428;8.378;2022-08-01T02:22:36;19.30;99.90
64855;DHT22;51321;50.428;8.378;2022-08-01T02:25:02;19.40;99.90
64855;DHT22;51321;50.428;8.378;2022-08-01T02:27:28;19.40;99.90
64855;DHT22;51321;50.428;8.378;2022-08-01T02:29:55;19.40;99.90
64855;DHT22;51321;50.428;8.378;2022-08-01T02:32:23;19.40;99.90
64855;DHT22;51321;50.428;8.378;2022-08-01T02:34:46;19.40;99.90
64855;DHT22;51321;50.428;8.378;2022-08-01T02:37:12;19.40;99.90
64855;DHT22;51321;50.428;8.378;2022-08-01T02:39:36;19.50;99.90
64855;DHT22;51321;50.428;8.378;2022-08-01T02:42:02;19.50;99.90
64855;DHT22;51321;50.428;8.378;2022-08-01T02:44:28;19.50;99.90
64855;DHT22;51321;50.428;8.378;2022-08-01T02:46:54;19.60;99.90
64855;DHT22;51321;50.428;8.378;2022-08-01T02:49:18;19.60;99.90
64855;DHT22;51321;50.428;8.378;2022-08-01T02:51:43;19.60;99.90
64855;DHT22;51321;50.428;8.378;2022-08-01T02:54:08;19.60;99.90
64855;DHT22;51321;50.428;8.378;2022-08-01T02:56:32;19.70;99.90
64855;DHT22;51321;50.428;8.378;2022-08-01T02:58:57;19.70;99.90
64855;DHT22;51321;50.428;8.378;2022-08-01T03:01:19;19.70;99.90
64855;DHT22;51321;50.428;8.378;2022-08-01T03:03:42;19.70;99.90
64855;DHT22;51321;50.428;8.378;2022-08-01T03:06:04;19.70;99.90
64855;DHT22;51321;50.428;8.378;2022-08-01T03:08:27;19.70;99.90
64855;DHT22;51321;50.428;8.378;2022-08-01T03:10:52;19.70;99.90
64855;DHT22;51321;50.428;8.378;2022-08-01T03:13:15;19.60;99.90
64855;DHT22;51321;50.428;8.378;2022-08-01T03:15:40;19.60;99.90
64855;DHT22;51321;50.428;8.378;2022-08-01T03:18:05;19.70;99.90
64855;DHT22;51321;50.428;8.378;2022-08-01T03:20:30;19.60;99.90
64855;DHT22;51321;50.428;8.378;2022-08-01T03:22:54;19.70;99.90
64855;DHT22;51321;50.428;8.378;2022-08-01T03:25:20;19.70;99.90
64855;DHT22;51321;50.428;8.378;2022-08-01T03:27:47;19.70;99.90
64855;DHT22;51321;50.428;8.378;2022-08-01T03:30:10;19.80;99.90
64855;DHT22;51321;50.428;8.378;2022-08-01T03:32:33;19.80;99.90
64855;DHT22;51321;50.428;8.378;2022-08-01T03:34:55;19.80;99.90
64855;DHT22;51321;50.428;8.378;2022-08-01T03:37:19;19.80;99.90
64855;DHT22;51321;50.428;8.378;2022-08-01T03:39:47;19.80;99.90
64855;DHT22;51321;50.428;8.378;2022-08-01T03:42:15;19.80;99.90
64855;DHT22;51321;50.428;8.378;2022-08-01T03:44:41;19.80;99.90
64855;DHT22;51321;50.428;8.378;2022-08-01T03:47:05;19.80;99.90
64855;DHT22;51321;50.428;8.378;2022-08-01T03:49:32;19.90;99.90
64855;DHT22;51321;50.428;8.378;2022-08-01T03:51:57;20.00;99.90
64855;DHT22;51321;50.428;8.378;2022-08-01T03:54:21;19.90;99.90
64855;DHT22;51321;50.428;8.378;2022-08-01T03:56:46;19.90;99.90
64855;DHT22;51321;50.428;8.378;2022-08-01T03:59:10;19.90;99.90
64855;DHT22;51321;50.428;8.378;2022-08-01T04:01:33;19.90;99.90
64855;DHT22;51321;50.428;8.378;2022-08-01T04:03:56;19.90;99.90
64855;DHT22;51321;50.428;8.378;2022-08-01T04:06:19;20.00;99.90
64855;DHT22;51321;50.428;8.378;2022-08-01T04:08:41;20.00;99.90
64855;DHT22;51321;50.428;8.378;2022-08-01T04:11:03;20.00;99.90
64855;DHT22;51321;50.428;8.378;2022-08-01T04:13:25;20.00;99.90
64855;DHT22;51321;50.428;8.378;2022-08-01T04:15:47;20.00;99.90
64855;DHT22;51321;50.428;8.378;2022-08-01T04:18:10;20.00;99.90
64855;DHT22;51321;50.428;8.378;2022-08-01T04:20:32;20.00;99.90
64855;DHT22;51321;50.428;8.378;2022-08-01T04:22:53;19.90;99.90
64855;DHT22;51321;50.428;8.378;2022-08-01T04:25:19;20.00;99.90
64855;DHT22;51321;50.428;8.378;2022-08-01T04:27:46;20.10;99.90
64855;DHT22;51321;50.428;8.378;2022-08-01T04:30:09;20.30;99.90
64855;DHT22;51321;50.428;8.378;2022-08-01T04:32:33;20.40;99.90
64855;DHT22;51321;50.428;8.378;2022-08-01T04:34:58;20.30;99.90
64855;DHT22;51321;50.428;8.378;2022-08-01T04:37:21;20.40;99.90
64855;DHT22;51321;50.428;8.378;2022-08-01T04:39:46;20.50;99.90
64855;DHT22;51321;50.428;8.378;2022-08-01T04:42:08;20.60;99.90
64855;DHT22;51321;50.428;8.378;2022-08-01T04:44:32;20.60;99.70
64855;DHT22;51321;50.428;8.378;2022-08-01T04:46:54;20.70;99.50
64855;DHT22;51321;50.428;8.378;2022-08-01T04:49:17;20.70;99.40
64855;DHT22;51321;50.428;8.378;2022-08-01T04:51:51;20.70;99.20
64855;DHT22;51321;50.428;8.378;2022-08-01T04:54:18;20.70;99.40
64855;DHT22;51321;50.428;8.378;2022-08-01T04:56:42;20.70;99.60
64855;DHT22;51321;50.428;8.378;2022-08-01T04:59:03;20.50;99.70
64855;DHT22;51321;50.428;8.378;2022-08-01T05:01:42;20.50;99.90
64855;DHT22;51321;50.428;8.378;2022-08-01T05:04:09;20.50;99.90
64855;DHT22;51321;50.428;8.378;2022-08-01T05:06:30;20.50;99.90
64855;DHT22;51321;50.428;8.378;2022-08-01T05:08:54;20.50;99.90
64855;DHT22;51321;50.428;8.378;2022-08-01T05:11:16;20.40;99.90
64855;DHT22;51321;50.428;8.378;2022-08-01T05:13:37;20.40;99.90
64855;DHT22;51321;50.428;8.378;2022-08-01T05:15:59;20.40;99.90
64855;DHT22;51321;50.428;8.378;2022-08-01T05:18:24;20.30;99.90
64855;DHT22;51321;50.428;8.378;2022-08-01T05:20:45;20.40;99.90
64855;DHT22;51321;50.428;8.378;2022-08-01T05:23:07;20.40;99.90
64855;DHT22;51321;50.428;8.378;2022-08-01T05:25:31;20.30;99.90
64855;DHT22;51321;50.428;8.378;2022-08-01T05:27:53;20.40;99.90
64855;DHT22;51321;50.428;8.378;2022-08-01T05:30:15;20.40;99.90
64855;DHT22;51321;50.428;8.378;2022-08-01T05:32:37;20.40;99.90
64855;DHT22;51321;50.428;8.378;2022-08-01T05:34:59;20.40;99.90
64855;DHT22;51321;50.428;8.378;2022-08-01T05:37:21;20.30;99.90
64855;DHT22;51321;50.428;8.378;2022-08-01T05:39:43;20.30;99.90
64855;DHT22;51321;50.428;8.378;2022-08-01T05:42:06;20.40;99.90
64855;DHT22;51321;50.428;8.378;2022-08-01T05:44:28;20.50;99.90
64855;DHT22;51321;50.428;8.378;2022-08-01T05:46:50;20.50;99.90
64855;DHT22;51321;50.428;8.378;2022-08-01T05:49:11;20.60;99.90
64855;DHT22;51321;50.428;8.378;2022-08-01T05:51:34;20.50;99.90
64855;DHT22;51321;50.428;8.378;2022-08-01T05:53:56;20.50;99.90
64855;DHT22;51321;50.428;8.378;2022-08-01T05:56:17;20.50;99.90
64855;DHT22;51321;50.428;8.378;2022-08-01T05:58:40;20.50;99.90
64855;DHT22;51321;50.428;8.378;2022-08-01T06:01:02;20.60;99.90
64855;DHT22;51321;50.428;8.378;2022-08-01T06:03:24;20.70;99.90
64855;DHT22;51321;50.428;8.378;2022-08-01T06:05:46;20.60;99.90
64855;DHT22;51321;50.428;8.378;2022-08-01T06:08:08;20.70;99.90
64855;DHT22;51321;50.428;8.378;2022-08-01T06:10:29;20.60;99.90
64855;DHT22;51321;50.428;8.378;2022-08-01T06:12:51;20.70;99.90
64855;DHT22;51321;50.428;8.378;2022-08-01T06:15:14;20.80;99.90
64855;DHT22;51321;50.428;8.378;2022-08-01T06:17:36;20.90;99.90
64855;DHT22;51321;50.428;8.378;2022-08-01T06:19:59;21.10;99.90
64855;DHT22;51321;50.428;8.378;2022-08-01T06:22:21;21.00;99.90
64855;DHT22;51321;50.428;8.378;2022-08-01T06:24:43;20.90;99.90
64855;DHT22;51321;50.428;8.378;2022-08-01T06:27:05;20.90;99.90
64855;DHT22;51321;50.428;8.378;2022-08-01T06:29:26;20.70;99.90
64855;DHT22;51321;50.428;8.378;2022-08-01T06:31:49;20.50;99.90
64855;DHT22;51321;50.428;8.378;2022-08-01T06:34:11;20.60;99.90
64855;DHT22;51321;50.428;8.378;2022-08-01T06:36:33;20.60;99.90
64855;DHT22;51321;50.428;8.378;2022-08-01T06:38:55;20.50;99.90
64855;DHT22;51321;50.428;8.378;2022-08-01T06:41:16;20.60;99.90
64855;DHT22;51321;50.428;8.378;2022-08-01T06:43:38;20.70;99.90
64855;DHT22;51321;50.428;8.378;2022-08-01T06:46:00;20.70;99.90
64855;DHT22;51321;50.428;8.378;2022-08-01T06:48:23;20.80;99.90
64855;DHT22;51321;50.428;8.378;2022-08-01T06:50:45;20.80;99.90
64855;DHT22;51321;50.428;8.378;2022-08-01T06:53:06;20.80;99.90
64855;DHT22;51321;50.428;8.378;2022-08-01T06:55:28;20.90;99.90
64855;DHT22;51321;50.428;8.378;2022-08-01T06:57:51;21.10;99.90
64855;DHT22;51321;50.428;8.378;2022-08-01T07:00:14;21.10;99.90
64855;DHT22;51321;50.428;8.378;2022-08-01T07:02:39;21.30;99.90
64855;DHT22;51321;50.428;8.378;2022-08-01T07:05:03;21.40;99.90
64855;DHT22;51321;50.428;8.378;2022-08-01T07:07:25;21.20;99.90
64855;DHT22;51321;50.428;8.378;2022-08-01T07:09:46;21.30;99.90
64855;DHT22;51321;50.428;8.378;2022-08-01T07:12:08;21.50;99.90
64855;DHT22;51321;50.428;8.378;2022-08-01T07:14:30;21.60;99.90
64855;DHT22;51321;50.428;8.378;2022-08-01T07:16:52;21.50;99.90
64855;DHT22;51321;50.428;8.378;2022-08-01T07:19:14;21.40;99.90
64855;DHT22;51321;50.428;8.378;2022-08-01T07:21:37;21.40;99.90
64855;DHT22;51321;50.428;8.378;2022-08-01T07:23:59;21.40;99.90
64855;DHT22;51321;50.428;8.378;2022-08-01T07:26:20;21.50;99.90
64855;DHT22;51321;50.428;8.378;2022-08-01T07:28:42;21.70;99.70
64855;DHT22;51321;50.428;8.378;2022-08-01T07:31:04;21.90;99.10
64855;DHT22;51321;50.428;8.378;2022-08-01T07:33:26;21.90;99.00
64855;DHT22;51321;50.428;8.378;2022-08-01T07:35:48;22.00;99.20
64855;DHT22;51321;50.428;8.378;2022-08-01T07:38:11;22.00;98.80
64855;DHT22;51321;50.428;8.378;2022-08-01T07:40:33;21.90;99.00
64855;DHT22;51321;50.428;8.378;2022-08-01T07:42:55;21.80;98.90
64855;DHT22;51321;50.428;8.378;2022-08-01T07:45:16;21.70;99.00
64855;DHT22;51321;50.428;8.378;2022-08-01T07:47:38;21.90;98.50
64855;DHT22;51321;50.428;8.378;2022-08-01T07:50:00;21.70;98.70
64855;DHT22;51321;50.428;8.378;2022-08-01T07:52:22;21.80;99.00
64855;DHT22;51321;50.428;8.378;2022-08-01T07:54:45;21.90;98.60
64855;DHT22;51321;50.428;8.378;2022-08-01T07:57:07;22.10;98.80
64855;DHT22;51321;50.428;8.378;2022-08-01T07:59:30;22.50;98.10
64855;DHT22;51321;50.428;8.378;2022-08-01T08:01:51;22.70;97.30
64855;DHT22;51321;50.428;8.378;2022-08-01T08:04:13;22.50;97.50
64855;DHT22;51321;50.428;8.378;2022-08-01T08:06:35;22.70;97.30
64855;DHT22;51321;50.428;8.378;2022-08-01T08:08:57;22.70;97.20
64855;DHT22;51321;50.428;8.378;2022-08-01T08:11:20;22.50;97.50
64855;DHT22;51321;50.428;8.378;2022-08-01T08:13:41;22.50;97.70
64855;DHT22;51321;50.428;8.378;2022-08-01T08:16:03;22.70;96.80
64855;DHT22;51321;50.428;8.378;2022-08-01T08:18:25;22.90;96.50
64855;DHT22;51321;50.428;8.378;2022-08-01T08:20:47;23.00;96.30
64855;DHT22;51321;50.428;8.378;2022-08-01T08:23:09;23.20;96.00
64855;DHT22;51321;50.428;8.378;2022-08-01T08:25:45;23.10;96.00
64855;DHT22;51321;50.428;8.378;2022-08-01T08:28:08;23.00;95.70
64855;DHT22;51321;50.428;8.378;2022-08-01T08:30:30;23.00;95.80
64855;DHT22;51321;50.428;8.378;2022-08-01T08:32:51;23.00;95.80
64855;DHT22;51321;50.428;8.378;2022-08-01T08:35:14;22.80;95.80
64855;DHT22;51321;50.428;8.378;2022-08-01T08:37:36;22.80;96.30
64855;DHT22;51321;50.428;8.378;2022-08-01T08:39:58;22.80;95.90
64855;DHT22;51321;50.428;8.378;2022-08-01T08:42:20;22.60;96.60
64855;DHT22;51321;50.428;8.378;2022-08-01T08:44:44;22.70;96.50
64855;DHT22;51321;50.428;8.378;2022-08-01T08:47:07;22.90;96.10
64855;DHT22;51321;50.428;8.378;2022-08-01T08:49:32;23.00;96.00
64855;DHT22;51321;50.428;8.378;2022-08-01T08:51:59;23.20;95.70
64855;DHT22;51321;50.428;8.378;2022-08-01T08:54:24;23.30;95.40
64855;DHT22;51321;50.428;8.378;2022-08-01T08:56:46;23.20;95.30
64855;DHT22;51321;50.428;8.378;2022-08-01T08:59:08;23.10;95.60
64855;DHT22;51321;50.428;8.378;2022-08-01T09:01:35;23.40;95.40
64855;DHT22;51321;50.428;8.378;2022-08-01T09:03:57;23.90;94.50
64855;DHT22;51321;50.428;8.378;2022-08-01T09:06:18;24.00;94.00
64855;DHT22;51321;50.428;8.378;2022-08-01T09:08:40;24.10;93.70
64855;DHT22;51321;50.428;8.378;2022-08-01T09:11:03;23.70;94.50
64855;DHT22;51321;50.428;8.378;2022-08-01T09:13:24;23.70;94.10
64855;DHT22;51321;50.428;8.378;2022-08-01T09:15:48;23.50;94.30
64855;DHT22;51321;50.428;8.378;2022-08-01T09:18:27;23.50;94.50
64855;DHT22;51321;50.428;8.378;2022-08-01T09:20:49;23.80;93.80
64855;DHT22;51321;50.428;8.378;2022-08-01T09:23:31;24.40;92.50
64855;DHT22;51321;50.428;8.378;2022-08-01T09:25:53;24.70;92.60
64855;DHT22;51321;50.428;8.378;2022-08-01T09:28:16;25.00;91.80
64855;DHT22;51321;50.428;8.378;2022-08-01T09:30:39;25.20;91.20
64855;DHT22;51321;50.428;8.378;2022-08-01T09:33:02;25.40;90.70
64855;DHT22;51321;50.428;8.378;2022-08-01T09:35:27;25.40;90.10
64855;DHT22;51321;50.428;8.378;2022-08-01T09:37:49;24.80;90.20
64855;DHT22;51321;50.428;8.378;2022-08-01T09:40:11;24.40;90.70
64855;DHT22;51321;50.428;8.378;2022-08-01T09:42:33;24.40;91.30
64855;DHT22;51321;50.428;8.378;2022-08-01T09:44:55;24.60;91.00
64855;DHT22;51321;50.428;8.378;2022-08-01T09:47:19;24.90;90.50
64855;DHT22;51321;50.428;8.378;2022-08-01T09:49:42;25.20;90.00
64855;DHT22;51321;50.428;8.378;2022-08-01T09:52:14;25.20;90.20
64855;DHT22;51321;50.428;8.378;2022-08-01T09:54:35;25.40;87.80
64855;DHT22;51321;50.428;8.378;2022-08-01T09:57:12;25.50;87.40
64855;DHT22;51321;50.428;8.378;2022-08-01T09:59:34;25.40;87.00
64855;DHT22;51321;50.428;8.378;2022-08-01T10:01:58;25.40;86.90
64855;DHT22;51321;50.428;8.378;2022-08-01T10:04:21;26.10;87.60
64855;DHT22;51321;50.428;8.378;2022-08-01T10:06:44;26.10;85.00
64855;DHT22;51321;50.428;8.378;2022-08-01T10:09:07;26.10;84.70
64855;DHT22;51321;50.428;8.378;2022-08-01T10:11:29;26.10;86.00
64855;DHT22;51321;50.428;8.378;2022-08-01T10:13:52;25.80;85.20
64855;DHT22;51321;50.428;8.378;2022-08-01T10:16:14;25.50;86.50
64855;DHT22;51321;50.428;8.378;2022-08-01T10:18:37;25.30;86.70
64855;DHT22;51321;50.428;8.378;2022-08-01T10:21:03;25.20;87.40
64855;DHT22;51321;50.428;8.378;2022-08-01T10:23:26;25.60;87.10
64855;DHT22;51321;50.428;8.378;2022-08-01T10:25:50;25.50;86.30
64855;DHT22;51321;50.428;8.378;2022-08-01T10:28:16;25.20;85.50
64855;DHT22;51321;50.428;8.378;2022-08-01T10:30:41;25.10;85.00
64855;DHT22;51321;50.428;8.378;2022-08-01T10:33:03;25.20;85.60
64855;DHT22;51321;50.428;8.378;2022-08-01T10:35:25;25.20;85.50
64855;DHT22;51321;50.428;8.378;2022-08-01T10:37:47;25.50;85.50
64855;DHT22;51321;50.428;8.378;2022-08-01T10:40:11;25.70;85.40
64855;DHT22;51321;50.428;8.378;2022-08-01T10:42:34;25.90;84.10
64855;DHT22;51321;50.428;8.378;2022-08-01T10:44:57;26.30;83.00
64855;DHT22;51321;50.428;8.378;2022-08-01T10:47:25;26.10;83.30
64855;DHT22;51321;50.428;8.378;2022-08-01T10:49:53;26.30;82.80
64855;DHT22;51321;50.428;8.378;2022-08-01T10:52:18;25.90;83.60
64855;DHT22;51321;50.428;8.378;2022-08-01T10:54:39;26.10;84.20
64855;DHT22;51321;50.428;8.378;2022-08-01T10:57:02;26.40;83.40
64855;DHT22;51321;50.428;8.378;2022-08-01T10:59:28;26.70;81.40
64855;DHT22;51321;50.428;8.378;2022-08-01T11:01:57;26.80;81.40
64855;DHT22;51321;50.428;8.378;2022-08-01T11:04:19;26.30;81.80
64855;DHT22;51321;50.428;8.378;2022-08-01T11:06:52;26.00;82.30
64855;DHT22;51321;50.428;8.378;2022-08-01T11:09:38;26.00;81.70
64855;DHT22;51321;50.428;8.378;2022-08-01T11:12:02;25.60;82.90
64855;DHT22;51321;50.428;8.378;2022-08-01T11:14:28;25.50;83.20
64855;DHT22;51321;50.428;8.378;2022-08-01T11:16:49;25.40;83.60
64855;DHT22;51321;50.428;8.378;2022-08-01T11:19:11;25.40;82.60
64855;DHT22;51321;50.428;8.378;2022-08-01T11:21:59;25.70;82.10
64855;DHT22;51321;50.428;8.378;2022-08-01T11:24:54;25.60;81.50
64855;DHT22;51321;50.428;8.378;2022-08-01T11:27:20;25.70;82.00
64855;DHT22;51321;50.428;8.378;2022-08-01T11:30:23;26.10;82.80
64855;DHT22;51321;50.428;8.378;2022-08-01T11:32:46;26.10;82.40
64855;DHT22;51321;50.428;8.378;2022-08-01T11:35:08;26.90;80.90
64855;DHT22;51321;50.428;8.378;2022-08-01T11:37:30;27.20;79.60
64855;DHT22;51321;50.428;8.378;2022-08-01T11:40:16;27.50;78.40
64855;DHT22;51321;50.428;8.378;2022-08-01T11:42:38;27.40;76.00
64855;DHT22;51321;50.428;8.378;2022-08-01T11:45:01;27.10;76.90
64855;DHT22;51321;50.428;8.378;2022-08-01T11:47:44;27.20;77.70
64855;DHT22;51321;50.428;8.378;2022-08-01T11:50:30;26.50;77.70
64855;DHT22;51321;50.428;8.378;2022-08-01T11:52:57;26.50;78.00
64855;DHT22;51321;50.428;8.378;2022-08-01T11:55:19;27.00;78.30
64855;DHT22;51321;50.428;8.378;2022-08-01T11:57:41;27.40;77.10
64855;DHT22;51321;50.428;8.378;2022-08-01T12:00:10;27.70;76.30
64855;DHT22;51321;50.428;8.378;2022-08-01T12:02:35;28.00;75.20
64855;DHT22;51321;50.428;8.378;2022-08-01T12:04:59;28.10;74.50
64855;DHT22;51321;50.428;8.378;2022-08-01T12:07:22;28.10;74.30
64855;DHT22;51321;50.428;8.378;2022-08-01T12:09:44;27.80;74.50
64855;DHT22;51321;50.428;8.378;2022-08-01T12:12:07;27.20;75.80
64855;DHT22;51321;50.428;8.378;2022-08-01T12:14:29;27.60;75.50
64855;DHT22;51321;50.428;8.378;2022-08-01T12:16:53;27.80;75.80
64855;DHT22;51321;50.428;8.378;2022-08-01T12:19:19;28.20;74.30
64855;DHT22;51321;50.428;8.378;2022-08-01T12:21:41;27.70;75.00
64855;DHT22;51321;50.428;8.378;2022-08-01T12:24:03;27.70;75.50
64855;DHT22;51321;50.428;8.378;2022-08-01T12:26:39;27.20;75.50
64855;DHT22;51321;50.428;8.378;2022-08-01T12:29:00;26.70;76.60
64855;DHT22;51321;50.428;8.378;2022-08-01T12:31:31;26.70;75.60
64855;DHT22;51321;50.428;8.378;2022-08-01T12:33:54;26.50;76.40
64855;DHT22;51321;50.428;8.378;2022-08-01T12:36:27;26.50;76.00
64855;DHT22;51321;50.428;8.378;2022-08-01T12:38:52;26.30;76.60
64855;DHT22;51321;50.428;8.378;2022-08-01T12:41:14;26.60;77.10
64855;DHT22;51321;50.428;8.378;2022-08-01T12:43:36;26.50;77.10
64855;DHT22;51321;50.428;8.378;2022-08-01T12:45:59;26.90;77.90
64855;DHT22;51321;50.428;8.378;2022-08-01T12:48:22;27.10;76.60
64855;DHT22;51321;50.428;8.378;2022-08-01T12:50:45;27.40;74.60
64855;DHT22;51321;50.428;8.378;2022-08-01T12:53:07;27.30;74.60
64855;DHT22;51321;50.428;8.378;2022-08-01T12:55:30;27.30;74.10
64855;DHT22;51321;50.428;8.378;2022-08-01T12:58:04;27.10;74.60
64855;DHT22;51321;50.428;8.378;2022-08-01T13:00:26;26.60;75.00
64855;DHT22;51321;50.428;8.378;2022-08-01T13:02:50;26.70;75.80
64855;DHT22;51321;50.428;8.378;2022-08-01T13:05:13;26.80;76.10
64855;DHT22;51321;50.428;8.378;2022-08-01T13:07:45;27.00;75.60
64855;DHT22;51321;50.428;8.378;2022-08-01T13:10:08;27.00;76.50
64855;DHT22;51321;50.428;8.378;2022-08-01T13:12:31;27.00;76.00
64855;DHT22;51321;50.428;8.378;2022-08-01T13:14:52;27.10;75.60
64855;DHT22;51321;50.428;8.378;2022-08-01T13:17:29;27.10;76.10
64855;DHT22;51321;50.428;8.378;2022-08-01T13:19:51;26.80;74.70
64855;DHT22;51321;50.428;8.378;2022-08-01T13:22:14;26.80;75.50
64855;DHT22;51321;50.428;8.378;2022-08-01T13:24:37;26.90;74.90
64855;DHT22;51321;50.428;8.378;2022-08-01T13:26:59;27.00;76.10
64855;DHT22;51321;50.428;8.378;2022-08-01T13:29:30;27.00;75.50
64855;DHT22;51321;50.428;8.378;2022-08-01T13:31:53;26.90;74.40
64855;DHT22;51321;50.428;8.378;2022-08-01T13:34:15;26.70;74.90
64855;DHT22;51321;50.428;8.378;2022-08-01T13:36:38;26.70;75.90
64855;DHT22;51321;50.428;8.378;2022-08-01T13:39:01;26.70;75.80
64855;DHT22;51321;50.428;8.378;2022-08-01T13:41:40;26.70;75.10
64855;DHT22;51321;50.428;8.378;2022-08-01T13:44:02;26.60;75.00
64855;DHT22;51321;50.428;8.378;2022-08-01T13:46:24;26.50;75.00
64855;DHT22;51321;50.428;8.378;2022-08-01T13:48:46;26.50;75.30
64855;DHT22;51321;50.428;8.378;2022-08-01T13:51:07;26.80;76.40
64855;DHT22;51321;50.428;8.378;2022-08-01T13:53:29;26.70;75.00
64855;DHT22;51321;50.428;8.378;2022-08-01T13:55:51;26.60;75.70
64855;DHT22;51321;50.428;8.378;2022-08-01T13:58:14;26.70;75.70
64855;DHT22;51321;50.428;8.378;2022-08-01T14:00:36;26.70;75.40
64855;DHT22;51321;50.428;8.378;2022-08-01T14:02:58;26.90;76.00
64855;DHT22;51321;50.428;8.378;2022-08-01T14:05:20;26.90;74.90
64855;DHT22;51321;50.428;8.378;2022-08-01T14:07:42;26.70;74.90
64855;DHT22;51321;50.428;8.378;2022-08-01T14:10:05;26.70;74.50
64855;DHT22;51321;50.428;8.378;2022-08-01T14:12:27;26.60;74.90
64855;DHT22;51321;50.428;8.378;2022-08-01T14:14:50;26.70;74.50
64855;DHT22;51321;50.428;8.378;2022-08-01T14:17:12;26.80;74.10
64855;DHT22;51321;50.428;8.378;2022-08-01T14:19:33;26.90;74.00
64855;DHT22;51321;50.428;8.378;2022-08-01T14:21:55;27.10;72.20
64855;DHT22;51321;50.428;8.378;2022-08-01T14:24:17;27.00;73.00
64855;DHT22;51321;50.428;8.378;2022-08-01T14:26:39;27.20;71.60
64855;DHT22;51321;50.428;8.378;2022-08-01T14:29:00;27.30;71.10
64855;DHT22;51321;50.428;8.378;2022-08-01T14:31:23;27.40;71.90
64855;DHT22;51321;50.428;8.378;2022-08-01T14:33:45;27.30;71.70
64855;DHT22;51321;50.428;8.378;2022-08-01T14:36:07;27.40;72.90
64855;DHT22;51321;50.428;8.378;2022-08-01T14:38:29;27.60;72.90
64855;DHT22;51321;50.428;8.378;2022-08-01T14:40:50;27.20;71.80
64855;DHT22;51321;50.428;8.378;2022-08-01T14:43:13;27.20;72.70
64855;DHT22;51321;50.428;8.378;2022-08-01T14:45:34;27.20;71.80
64855;DHT22;51321;50.428;8.378;2022-08-01T14:47:58;27.00;72.60
64855;DHT22;51321;50.428;8.378;2022-08-01T14:50:20;26.90;71.50
64855;DHT22;51321;50.428;8.378;2022-08-01T14:52:42;26.60;71.40
64855;DHT22;51321;50.428;8.378;2022-08-01T14:55:05;26.50;71.90
64855;DHT22;51321;50.428;8.378;2022-08-01T14:57:27;26.60;72.50
64855;DHT22;51321;50.428;8.378;2022-08-01T14:59:49;26.80;73.30
64855;DHT22;51321;50.428;8.378;2022-08-01T15:02:11;26.70;73.20
64855;DHT22;51321;50.428;8.378;2022-08-01T15:04:38;26.60;73.30
64855;DHT22;51321;50.428;8.378;2022-08-01T15:07:00;26.50;74.20
64855;DHT22;51321;50.428;8.378;2022-08-01T15:09:22;26.60;74.40